createdAt,value
2018-01-07T00:00:04.948Z,0
2018-01-07T00:00:45.514Z,0
2018-01-07T00:01:26.132Z,0
2018-01-07T00:02:06.716Z,0
2018-01-07T00:02:47.317Z,0
2018-01-07T00:03:27.956Z,0
2018-01-07T00:04:08.497Z,0
2018-01-07T00:04:49.074Z,0
2018-01-07T00:05:29.641Z,0
2018-01-07T00:06:10.218Z,0
2018-01-07T00:06:50.817Z,0
2018-01-07T00:07:31.415Z,0
2018-01-07T00:08:12.039Z,4
2018-01-07T00:08:52.598Z,0
2018-01-07T00:09:33.174Z,0
2018-01-07T00:10:13.758Z,0
2018-01-07T00:10:54.341Z,0
2018-01-07T00:11:34.908Z,0
2018-01-07T00:12:15.537Z,0
2018-01-07T00:12:56.121Z,0
2018-01-07T00:13:36.698Z,0
2018-01-07T00:14:17.266Z,0
2018-01-07T00:14:57.850Z,0
2018-01-07T00:15:38.422Z,0
2018-01-07T00:16:19.017Z,0
2018-01-07T00:16:59.625Z,0
2018-01-07T00:17:40.204Z,0
2018-01-07T00:18:20.786Z,0
2018-01-07T00:19:01.360Z,0
2018-01-07T00:19:41.960Z,0
2018-01-07T00:20:22.559Z,0
2018-01-07T00:21:03.142Z,0
2018-01-07T00:21:43.738Z,0
2018-01-07T00:22:24.453Z,0
2018-01-07T00:23:05.025Z,0
2018-01-07T00:23:45.591Z,0
2018-01-07T00:24:26.159Z,0
2018-01-07T00:25:06.714Z,0
2018-01-07T00:25:47.287Z,0
2018-01-07T00:26:27.851Z,0
2018-01-07T00:27:08.508Z,0
2018-01-07T00:27:49.077Z,0
2018-01-07T00:28:29.643Z,0
2018-01-07T00:29:10.205Z,0
2018-01-07T00:29:50.791Z,0
2018-01-07T00:30:31.363Z,0
2018-01-07T00:31:11.935Z,0
2018-01-07T00:31:52.507Z,0
2018-01-07T00:32:33.101Z,0
2018-01-07T00:33:13.668Z,0
2018-01-07T00:33:54.273Z,0
2018-01-07T00:34:34.837Z,0
2018-01-07T00:35:15.438Z,0
2018-01-07T00:35:56.073Z,0
2018-01-07T00:36:36.644Z,0
2018-01-07T00:37:17.204Z,0
2018-01-07T00:37:57.804Z,0
2018-01-07T00:38:38.378Z,0
2018-01-07T00:39:18.991Z,0
2018-01-07T00:39:59.582Z,0
2018-01-07T00:40:40.169Z,0
2018-01-07T00:41:20.766Z,0
2018-01-07T00:42:01.326Z,0
2018-01-07T00:42:41.899Z,0
2018-01-07T00:43:22.516Z,0
2018-01-07T00:44:03.084Z,0
2018-01-07T00:44:43.663Z,0
2018-01-07T00:45:24.233Z,0
2018-01-07T00:46:04.802Z,0
2018-01-07T00:46:45.350Z,0
2018-01-07T00:47:25.942Z,0
2018-01-07T00:48:06.518Z,0
2018-01-07T00:48:47.216Z,0
2018-01-07T00:49:27.869Z,0
2018-01-07T00:50:08.469Z,0
2018-01-07T00:50:49.050Z,0
2018-01-07T00:51:29.610Z,0
2018-01-07T00:52:10.180Z,0
2018-01-07T00:52:50.737Z,0
2018-01-07T00:53:31.302Z,0
2018-01-07T00:54:11.876Z,0
2018-01-07T00:54:52.460Z,0
2018-01-07T00:55:33.024Z,0
2018-01-07T00:56:13.644Z,0
2018-01-07T00:56:54.225Z,0
2018-01-07T00:57:34.808Z,0
2018-01-07T00:58:15.366Z,0
2018-01-07T00:58:55.955Z,0
2018-01-07T00:59:36.525Z,0
2018-01-07T01:00:17.128Z,0
2018-01-07T01:00:57.677Z,0
2018-01-07T01:01:38.240Z,0
2018-01-07T01:02:18.817Z,0
2018-01-07T01:02:59.393Z,0
2018-01-07T01:03:39.966Z,0
2018-01-07T01:04:20.536Z,0
2018-01-07T01:05:01.167Z,0
2018-01-07T01:05:41.734Z,0
2018-01-07T01:06:22.306Z,0
2018-01-07T01:07:02.874Z,0
2018-01-07T01:07:43.464Z,0
2018-01-07T01:08:24.059Z,0
2018-01-07T01:09:04.694Z,0
2018-01-07T01:09:45.263Z,0
2018-01-07T01:10:25.902Z,0
2018-01-07T01:11:06.453Z,0
2018-01-07T01:11:47.019Z,0
2018-01-07T01:12:27.598Z,0
2018-01-07T01:13:08.173Z,0
2018-01-07T01:13:48.717Z,0
2018-01-07T01:14:29.298Z,0
2018-01-07T01:15:09.859Z,0
2018-01-07T01:15:50.418Z,0
2018-01-07T01:16:31.016Z,0
2018-01-07T01:17:11.591Z,0
2018-01-07T01:17:52.164Z,0
2018-01-07T01:18:32.739Z,0
2018-01-07T01:19:13.336Z,0
2018-01-07T01:19:53.934Z,0
2018-01-07T01:20:34.519Z,0
2018-01-07T01:21:15.100Z,0
2018-01-07T01:21:55.698Z,0
2018-01-07T01:22:36.301Z,0
2018-01-07T01:23:16.853Z,0
2018-01-07T01:23:57.434Z,0
2018-01-07T01:24:38.012Z,0
2018-01-07T01:25:18.591Z,0
2018-01-07T01:25:59.147Z,0
2018-01-07T01:26:39.722Z,0
2018-01-07T01:27:20.296Z,0
2018-01-07T01:28:00.856Z,0
2018-01-07T01:28:41.441Z,0
2018-01-07T01:29:22.028Z,0
2018-01-07T01:30:02.593Z,0
2018-01-07T01:30:43.170Z,0
2018-01-07T01:31:23.747Z,0
2018-01-07T01:32:04.320Z,0
2018-01-07T01:32:44.894Z,0
2018-01-07T01:33:25.473Z,0
2018-01-07T01:34:06.023Z,0
2018-01-07T01:34:46.582Z,0
2018-01-07T01:35:27.186Z,0
2018-01-07T01:36:07.766Z,0
2018-01-07T01:36:48.362Z,0
2018-01-07T01:37:28.934Z,0
2018-01-07T01:38:09.526Z,0
2018-01-07T01:38:50.101Z,0
2018-01-07T01:39:30.673Z,0
2018-01-07T01:40:11.263Z,0
2018-01-07T01:40:51.837Z,0
2018-01-07T01:41:32.400Z,0
2018-01-07T01:42:12.997Z,0
2018-01-07T01:42:53.555Z,0
2018-01-07T01:43:34.129Z,0
2018-01-07T01:44:14.697Z,0
2018-01-07T01:44:55.256Z,0
2018-01-07T01:45:35.824Z,0
2018-01-07T01:46:16.418Z,0
2018-01-07T01:46:57.003Z,0
2018-01-07T01:47:37.593Z,0
2018-01-07T01:48:18.161Z,0
2018-01-07T01:48:58.733Z,0
2018-01-07T01:49:39.309Z,0
2018-01-07T01:50:19.863Z,0
2018-01-07T01:51:00.418Z,0
2018-01-07T01:51:40.981Z,0
2018-01-07T01:52:21.586Z,0
2018-01-07T01:53:02.168Z,0
2018-01-07T01:53:42.737Z,0
2018-01-07T01:54:23.316Z,0
2018-01-07T01:55:03.872Z,0
2018-01-07T01:55:44.434Z,0
2018-01-07T01:56:25.002Z,0
2018-01-07T01:57:05.607Z,0
2018-01-07T01:57:46.178Z,0
2018-01-07T01:58:26.761Z,0
2018-01-07T01:59:07.365Z,0
2018-01-07T01:59:47.950Z,0
2018-01-07T02:00:28.542Z,0
2018-01-07T02:01:09.160Z,0
2018-01-07T02:01:49.742Z,0
2018-01-07T02:02:30.340Z,0
2018-01-07T02:03:10.908Z,0
2018-01-07T02:03:51.479Z,0
2018-01-07T02:04:32.073Z,0
2018-01-07T02:05:12.649Z,0
2018-01-07T02:05:53.300Z,0
2018-01-07T02:06:33.866Z,0
2018-01-07T02:07:14.451Z,0
2018-01-07T02:07:55.011Z,0
2018-01-07T02:08:35.642Z,0
2018-01-07T02:09:16.227Z,0
2018-01-07T02:09:56.970Z,0
2018-01-07T02:10:37.556Z,0
2018-01-07T02:11:18.157Z,0
2018-01-07T02:11:58.821Z,0
2018-01-07T02:12:39.408Z,0
2018-01-07T02:13:19.994Z,0
2018-01-07T02:14:00.592Z,0
2018-01-07T02:14:41.161Z,0
2018-01-07T02:15:21.734Z,0
2018-01-07T02:16:02.314Z,0
2018-01-07T02:16:42.885Z,0
2018-01-07T02:17:23.445Z,0
2018-01-07T02:18:04.024Z,0
2018-01-07T02:18:44.595Z,0
2018-01-07T02:19:25.183Z,0
2018-01-07T02:20:05.762Z,0
2018-01-07T02:20:46.332Z,0
2018-01-07T02:21:26.906Z,0
2018-01-07T02:22:07.508Z,0
2018-01-07T02:22:48.132Z,0
2018-01-07T02:23:28.663Z,0
2018-01-07T02:24:09.217Z,0
2018-01-07T02:24:49.798Z,0
2018-01-07T02:25:30.391Z,0
2018-01-07T02:26:10.974Z,0
2018-01-07T02:26:51.552Z,0
2018-01-07T02:27:32.131Z,0
2018-01-07T02:28:12.687Z,0
2018-01-07T02:28:53.259Z,0
2018-01-07T02:29:33.856Z,0
2018-01-07T02:30:14.437Z,0
2018-01-07T02:30:55.010Z,0
2018-01-07T02:31:35.604Z,0
2018-01-07T02:32:16.165Z,0
2018-01-07T02:32:56.781Z,0
2018-01-07T02:33:37.357Z,0
2018-01-07T02:34:17.952Z,0
2018-01-07T02:34:58.518Z,0
2018-01-07T02:35:39.096Z,0
2018-01-07T02:36:19.696Z,0
2018-01-07T02:37:00.268Z,0
2018-01-07T02:37:40.851Z,0
2018-01-07T02:38:21.426Z,0
2018-01-07T02:39:02.000Z,0
2018-01-07T02:39:42.576Z,0
2018-01-07T02:40:23.139Z,0
2018-01-07T02:41:03.703Z,0
2018-01-07T02:41:44.284Z,0
2018-01-07T02:42:24.851Z,0
2018-01-07T02:43:05.433Z,0
2018-01-07T02:43:46.021Z,0
2018-01-07T02:44:26.692Z,0
2018-01-07T02:45:07.261Z,0
2018-01-07T02:45:47.845Z,0
2018-01-07T02:46:28.531Z,0
2018-01-07T02:47:09.089Z,0
2018-01-07T02:47:49.654Z,0
2018-01-07T02:48:30.217Z,0
2018-01-07T02:49:10.836Z,0
2018-01-07T02:49:51.399Z,0
2018-01-07T02:50:32.079Z,0
2018-01-07T02:51:12.657Z,0
2018-01-07T02:51:53.266Z,0
2018-01-07T02:52:33.842Z,0
2018-01-07T02:53:14.475Z,0
2018-01-07T02:53:55.028Z,0
2018-01-07T02:54:35.585Z,0
2018-01-07T02:55:16.162Z,0
2018-01-07T02:55:56.763Z,0
2018-01-07T02:56:37.329Z,0
2018-01-07T02:57:17.900Z,0
2018-01-07T02:57:58.469Z,0
2018-01-07T02:58:39.049Z,0
2018-01-07T02:59:19.616Z,0
2018-01-07T03:00:00.194Z,0
2018-01-07T03:00:40.821Z,0
2018-01-07T03:01:21.413Z,0
2018-01-07T03:02:01.990Z,0
2018-01-07T03:02:42.751Z,0
2018-01-07T03:03:23.304Z,0
2018-01-07T03:04:03.875Z,0
2018-01-07T03:04:44.442Z,0
2018-01-07T03:05:24.998Z,0
2018-01-07T03:06:05.587Z,0
2018-01-07T03:06:46.174Z,0
2018-01-07T03:07:26.770Z,0
2018-01-07T03:08:07.368Z,0
2018-01-07T03:08:47.932Z,0
2018-01-07T03:09:28.495Z,0
2018-01-07T03:10:09.061Z,0
2018-01-07T03:10:49.641Z,0
2018-01-07T03:11:30.194Z,0
2018-01-07T03:12:10.774Z,0
2018-01-07T03:12:51.335Z,0
2018-01-07T03:13:31.954Z,0
2018-01-07T03:14:12.524Z,0
2018-01-07T03:14:53.102Z,0
2018-01-07T03:15:33.700Z,0
2018-01-07T03:16:14.305Z,0
2018-01-07T03:16:54.895Z,0
2018-01-07T03:17:35.471Z,0
2018-01-07T03:18:16.068Z,0
2018-01-07T03:18:56.635Z,0
2018-01-07T03:19:37.218Z,0
2018-01-07T03:20:17.803Z,0
2018-01-07T03:20:58.372Z,0
2018-01-07T03:21:38.962Z,0
2018-01-07T03:22:19.568Z,0
2018-01-07T03:23:00.132Z,0
2018-01-07T03:23:40.705Z,0
2018-01-07T03:24:21.283Z,0
2018-01-07T03:25:01.877Z,0
2018-01-07T03:25:42.435Z,0
2018-01-07T03:26:23.028Z,0
2018-01-07T03:27:03.600Z,0
2018-01-07T03:27:44.219Z,0
2018-01-07T03:28:24.762Z,0
2018-01-07T03:29:05.340Z,0
2018-01-07T03:29:45.916Z,0
2018-01-07T03:30:26.482Z,0
2018-01-07T03:31:07.090Z,0
2018-01-07T03:31:47.723Z,0
2018-01-07T03:32:28.289Z,0
2018-01-07T03:33:08.859Z,0
2018-01-07T03:33:49.436Z,0
2018-01-07T03:34:30.012Z,0
2018-01-07T03:35:10.588Z,0
2018-01-07T03:35:51.172Z,0
2018-01-07T03:36:31.730Z,0
2018-01-07T03:37:12.304Z,0
2018-01-07T03:37:52.868Z,0
2018-01-07T03:38:33.455Z,0
2018-01-07T03:39:14.019Z,0
2018-01-07T03:39:54.630Z,0
2018-01-07T03:40:35.199Z,0
2018-01-07T03:41:15.787Z,0
2018-01-07T03:41:56.385Z,0
2018-01-07T03:42:36.951Z,0
2018-01-07T03:43:17.565Z,0
2018-01-07T03:43:58.150Z,0
2018-01-07T03:44:38.728Z,0
2018-01-07T03:45:19.302Z,0
2018-01-07T03:45:59.897Z,0
2018-01-07T03:46:40.462Z,0
2018-01-07T03:47:21.045Z,0
2018-01-07T03:48:01.609Z,0
2018-01-07T03:48:42.198Z,0
2018-01-07T03:49:22.773Z,0
2018-01-07T03:50:03.334Z,0
2018-01-07T03:50:43.897Z,0
2018-01-07T03:51:24.462Z,0
2018-01-07T03:52:05.046Z,0
2018-01-07T03:52:45.644Z,0
2018-01-07T03:53:26.225Z,0
2018-01-07T03:54:06.799Z,0
2018-01-07T03:54:47.366Z,0
2018-01-07T03:55:27.952Z,0
2018-01-07T03:56:08.532Z,0
2018-01-07T03:56:49.125Z,0
2018-01-07T03:57:29.720Z,0
2018-01-07T03:58:10.312Z,0
2018-01-07T03:58:50.894Z,0
2018-01-07T03:59:31.464Z,0
2018-01-07T04:00:12.033Z,0
2018-01-07T04:00:52.597Z,0
2018-01-07T04:01:33.192Z,0
2018-01-07T04:02:13.780Z,0
2018-01-07T04:02:54.374Z,0
2018-01-07T04:03:34.939Z,0
2018-01-07T04:04:15.519Z,0
2018-01-07T04:04:56.104Z,0
2018-01-07T04:05:36.701Z,0
2018-01-07T04:06:17.280Z,0
2018-01-07T04:06:57.914Z,0
2018-01-07T04:07:38.465Z,0
2018-01-07T04:08:19.045Z,0
2018-01-07T04:08:59.614Z,0
2018-01-07T04:09:40.253Z,0
2018-01-07T04:10:20.813Z,0
2018-01-07T04:11:01.379Z,0
2018-01-07T04:11:41.953Z,0
2018-01-07T04:12:22.522Z,0
2018-01-07T04:13:03.111Z,0
2018-01-07T04:13:43.675Z,0
2018-01-07T04:14:24.234Z,0
2018-01-07T04:15:04.801Z,0
2018-01-07T04:15:45.366Z,0
2018-01-07T04:16:25.925Z,0
2018-01-07T04:17:06.506Z,0
2018-01-07T04:17:47.066Z,0
2018-01-07T04:18:27.624Z,0
2018-01-07T04:19:08.183Z,0
2018-01-07T04:19:48.783Z,0
2018-01-07T04:20:29.364Z,0
2018-01-07T04:21:10.057Z,0
2018-01-07T04:21:50.631Z,0
2018-01-07T04:22:31.235Z,0
2018-01-07T04:23:11.850Z,0
2018-01-07T04:23:52.434Z,0
2018-01-07T04:24:32.997Z,0
2018-01-07T04:25:13.584Z,0
2018-01-07T04:25:54.165Z,0
2018-01-07T04:26:34.762Z,0
2018-01-07T04:27:15.345Z,0
2018-01-07T04:27:55.912Z,0
2018-01-07T04:28:36.505Z,0
2018-01-07T04:29:17.086Z,0
2018-01-07T04:29:57.660Z,0
2018-01-07T04:30:38.227Z,0
2018-01-07T04:31:18.817Z,0
2018-01-07T04:31:59.409Z,0
2018-01-07T04:32:39.958Z,0
2018-01-07T04:33:20.519Z,0
2018-01-07T04:34:01.116Z,0
2018-01-07T04:34:41.711Z,0
2018-01-07T04:35:22.336Z,0
2018-01-07T04:36:02.916Z,0
2018-01-07T04:36:43.490Z,0
2018-01-07T04:37:24.060Z,0
2018-01-07T04:38:04.651Z,0
2018-01-07T04:38:45.201Z,0
2018-01-07T04:39:25.785Z,0
2018-01-07T04:40:06.388Z,0
2018-01-07T04:40:46.962Z,0
2018-01-07T04:41:27.546Z,0
2018-01-07T04:42:08.140Z,0
2018-01-07T04:42:48.716Z,0
2018-01-07T04:43:29.300Z,0
2018-01-07T04:44:09.873Z,0
2018-01-07T04:44:50.487Z,0
2018-01-07T04:45:31.075Z,0
2018-01-07T04:46:11.658Z,0
2018-01-07T04:46:52.295Z,0
2018-01-07T04:47:32.885Z,0
2018-01-07T04:48:13.471Z,0
2018-01-07T04:48:54.048Z,0
2018-01-07T04:49:34.623Z,0
2018-01-07T04:50:15.179Z,0
2018-01-07T04:50:55.772Z,0
2018-01-07T04:51:36.363Z,0
2018-01-07T04:52:16.929Z,0
2018-01-07T04:52:57.508Z,0
2018-01-07T04:53:38.079Z,0
2018-01-07T04:54:18.669Z,0
2018-01-07T04:54:59.320Z,0
2018-01-07T04:55:39.994Z,0
2018-01-07T04:56:20.590Z,0
2018-01-07T04:57:01.239Z,0
2018-01-07T04:57:41.820Z,0
2018-01-07T04:58:22.397Z,0
2018-01-07T04:59:02.998Z,0
2018-01-07T04:59:43.574Z,0
2018-01-07T05:00:24.141Z,0
2018-01-07T05:01:04.700Z,0
2018-01-07T05:01:45.250Z,0
2018-01-07T05:02:25.826Z,0
2018-01-07T05:03:06.417Z,0
2018-01-07T05:03:47.050Z,0
2018-01-07T05:04:27.654Z,0
2018-01-07T05:05:08.223Z,0
2018-01-07T05:05:48.880Z,0
2018-01-07T05:06:29.458Z,0
2018-01-07T05:07:10.023Z,0
2018-01-07T05:07:50.604Z,0
2018-01-07T05:08:31.173Z,0
2018-01-07T05:09:11.738Z,0
2018-01-07T05:09:52.308Z,0
2018-01-07T05:10:32.887Z,0
2018-01-07T05:11:13.452Z,0
2018-01-07T05:11:54.061Z,0
2018-01-07T05:12:34.685Z,0
2018-01-07T05:13:15.238Z,0
2018-01-07T05:13:55.837Z,0
2018-01-07T05:14:36.453Z,0
2018-01-07T05:15:17.053Z,0
2018-01-07T05:15:57.682Z,0
2018-01-07T05:16:38.260Z,0
2018-01-07T05:17:18.823Z,0
2018-01-07T05:17:59.579Z,0
2018-01-07T05:18:40.153Z,0
2018-01-07T05:19:20.720Z,0
2018-01-07T05:20:01.286Z,0
2018-01-07T05:20:41.848Z,0
2018-01-07T05:21:22.448Z,0
2018-01-07T05:22:03.005Z,0
2018-01-07T05:22:43.567Z,0
2018-01-07T05:23:24.131Z,0
2018-01-07T05:24:04.690Z,4
2018-01-07T05:24:45.276Z,4
2018-01-07T05:25:25.854Z,4
2018-01-07T05:26:06.436Z,4
2018-01-07T05:26:47.038Z,4
2018-01-07T05:27:27.618Z,4
2018-01-07T05:28:08.228Z,4
2018-01-07T05:28:48.786Z,4
2018-01-07T05:29:29.348Z,4
2018-01-07T05:30:09.943Z,4
2018-01-07T05:30:50.511Z,4
2018-01-07T05:31:31.090Z,4
2018-01-07T05:32:11.699Z,4
2018-01-07T05:32:52.309Z,4
2018-01-07T05:33:32.818Z,4
2018-01-07T05:34:13.423Z,4
2018-01-07T05:34:54.017Z,4
2018-01-07T05:35:34.590Z,4
2018-01-07T05:36:15.165Z,4
2018-01-07T05:36:55.733Z,4
2018-01-07T05:37:36.295Z,4
2018-01-07T05:38:16.876Z,4
2018-01-07T05:38:57.441Z,4
2018-01-07T05:39:38.006Z,4
2018-01-07T05:40:18.569Z,4
2018-01-07T05:40:59.140Z,4
2018-01-07T05:41:39.721Z,4
2018-01-07T05:42:20.390Z,4
2018-01-07T05:43:01.042Z,4
2018-01-07T05:43:41.610Z,4
2018-01-07T05:44:22.169Z,4
2018-01-07T05:45:02.800Z,4
2018-01-07T05:45:43.371Z,4
2018-01-07T05:46:23.960Z,4
2018-01-07T05:47:04.576Z,4
2018-01-07T05:47:45.140Z,4
2018-01-07T05:48:25.718Z,4
2018-01-07T05:49:06.293Z,4
2018-01-07T05:49:46.885Z,4
2018-01-07T05:50:27.455Z,4
2018-01-07T05:51:08.061Z,4
2018-01-07T05:51:48.650Z,4
2018-01-07T05:52:29.229Z,4
2018-01-07T05:53:09.824Z,4
2018-01-07T05:53:50.389Z,4
2018-01-07T05:54:31.008Z,4
2018-01-07T05:55:11.567Z,4
2018-01-07T05:55:52.116Z,4
2018-01-07T05:56:32.764Z,4
2018-01-07T05:57:13.360Z,4
2018-01-07T05:57:53.933Z,4
2018-01-07T05:58:34.501Z,4
2018-01-07T05:59:15.072Z,4
2018-01-07T05:59:55.626Z,4
2018-01-07T06:00:36.190Z,4
2018-01-07T06:01:16.760Z,4
2018-01-07T06:01:57.327Z,4
2018-01-07T06:02:37.884Z,4
2018-01-07T06:03:18.498Z,4
2018-01-07T06:03:59.114Z,4
2018-01-07T06:04:39.692Z,4
2018-01-07T06:05:20.262Z,4
2018-01-07T06:06:00.860Z,4
2018-01-07T06:06:41.423Z,4
2018-01-07T06:07:22.008Z,4
2018-01-07T06:08:02.578Z,4
2018-01-07T06:08:43.166Z,4
2018-01-07T06:09:23.755Z,4
2018-01-07T06:10:04.309Z,4
2018-01-07T06:10:44.893Z,4
2018-01-07T06:11:25.499Z,4
2018-01-07T06:12:06.078Z,4
2018-01-07T06:12:46.658Z,4
2018-01-07T06:13:27.246Z,4
2018-01-07T06:14:07.831Z,4
2018-01-07T06:14:48.417Z,4
2018-01-07T06:15:29.017Z,4
2018-01-07T06:16:09.593Z,4
2018-01-07T06:16:50.156Z,4
2018-01-07T06:17:30.750Z,4
2018-01-07T06:18:11.333Z,4
2018-01-07T06:18:51.908Z,4
2018-01-07T06:19:32.494Z,4
2018-01-07T06:20:13.066Z,4
2018-01-07T06:20:53.641Z,4
2018-01-07T06:21:34.234Z,4
2018-01-07T06:22:14.819Z,4
2018-01-07T06:22:55.414Z,4
2018-01-07T06:23:36.005Z,4
2018-01-07T06:24:16.589Z,4
2018-01-07T06:24:57.173Z,4
2018-01-07T06:25:37.787Z,4
2018-01-07T06:26:18.382Z,4
2018-01-07T06:26:58.988Z,4
2018-01-07T06:27:39.562Z,4
2018-01-07T06:28:20.123Z,4
2018-01-07T06:29:00.699Z,4
2018-01-07T06:29:41.284Z,4
2018-01-07T06:30:21.889Z,4
2018-01-07T06:31:02.469Z,4
2018-01-07T06:31:43.055Z,4
2018-01-07T06:32:23.630Z,4
2018-01-07T06:33:04.215Z,4
2018-01-07T06:33:44.788Z,4
2018-01-07T06:34:25.357Z,4
2018-01-07T06:35:05.939Z,4
2018-01-07T06:35:46.521Z,0
2018-01-07T06:36:27.104Z,0
2018-01-07T06:37:07.718Z,0
2018-01-07T06:37:48.305Z,0
2018-01-07T06:38:28.881Z,4
2018-01-07T06:39:09.440Z,4
2018-01-07T06:39:50.011Z,4
2018-01-07T06:40:30.587Z,4
2018-01-07T06:41:11.145Z,4
2018-01-07T06:41:51.739Z,0
2018-01-07T06:42:32.356Z,4
2018-01-07T06:43:12.910Z,4
2018-01-07T06:43:53.487Z,4
2018-01-07T06:44:34.082Z,4
2018-01-07T06:45:14.650Z,4
2018-01-07T06:45:55.229Z,4
2018-01-07T06:46:35.849Z,4
2018-01-07T06:47:16.415Z,8
2018-01-07T06:47:56.977Z,8
2018-01-07T06:48:37.546Z,4
2018-01-07T06:49:18.154Z,8
2018-01-07T06:49:58.719Z,8
2018-01-07T06:50:39.294Z,8
2018-01-07T06:51:19.873Z,12
2018-01-07T06:52:00.439Z,12
2018-01-07T06:52:41.014Z,12
2018-01-07T06:53:21.593Z,12
2018-01-07T06:54:02.148Z,12
2018-01-07T06:54:42.758Z,12
2018-01-07T06:55:23.331Z,16
2018-01-07T06:56:03.909Z,12
2018-01-07T06:56:44.470Z,16
2018-01-07T06:57:25.079Z,16
2018-01-07T06:58:05.664Z,20
2018-01-07T06:58:46.267Z,20
2018-01-07T06:59:26.858Z,20
2018-01-07T07:00:07.424Z,24
2018-01-07T07:00:48.018Z,24
2018-01-07T07:01:28.572Z,24
2018-01-07T07:02:09.148Z,28
2018-01-07T07:02:49.707Z,28
2018-01-07T07:03:30.273Z,28
2018-01-07T07:04:10.851Z,32
2018-01-07T07:04:51.405Z,36
2018-01-07T07:05:31.965Z,36
2018-01-07T07:06:12.535Z,36
2018-01-07T07:06:53.099Z,40
2018-01-07T07:07:33.649Z,40
2018-01-07T07:08:14.217Z,44
2018-01-07T07:08:54.789Z,40
2018-01-07T07:09:35.348Z,44
2018-01-07T07:10:16.018Z,48
2018-01-07T07:10:56.629Z,52
2018-01-07T07:11:37.233Z,52
2018-01-07T07:12:17.779Z,60
2018-01-07T07:12:58.347Z,64
2018-01-07T07:13:38.904Z,68
2018-01-07T07:14:19.466Z,72
2018-01-07T07:15:00.054Z,72
2018-01-07T07:15:40.669Z,72
2018-01-07T07:16:21.232Z,80
2018-01-07T07:17:01.796Z,80
2018-01-07T07:17:42.385Z,76
2018-01-07T07:18:22.978Z,84
2018-01-07T07:19:03.608Z,88
2018-01-07T07:19:44.182Z,92
2018-01-07T07:20:24.753Z,92
2018-01-07T07:21:05.453Z,96
2018-01-07T07:21:46.074Z,100
2018-01-07T07:22:26.638Z,104
2018-01-07T07:23:07.202Z,104
2018-01-07T07:23:47.795Z,108
2018-01-07T07:24:28.380Z,108
2018-01-07T07:25:08.960Z,112
2018-01-07T07:25:49.515Z,116
2018-01-07T07:26:30.088Z,120
2018-01-07T07:27:10.643Z,120
2018-01-07T07:27:51.204Z,124
2018-01-07T07:28:31.821Z,124
2018-01-07T07:29:12.397Z,128
2018-01-07T07:29:52.985Z,132
2018-01-07T07:30:33.555Z,136
2018-01-07T07:31:14.128Z,140
2018-01-07T07:31:54.698Z,144
2018-01-07T07:32:35.291Z,148
2018-01-07T07:33:15.869Z,156
2018-01-07T07:35:44.904Z,184
2018-01-07T07:36:25.470Z,188
2018-01-07T07:37:06.033Z,192
2018-01-07T07:37:46.630Z,204
2018-01-07T07:38:28.133Z,208
2018-01-07T07:39:08.701Z,212
2018-01-07T07:39:49.265Z,212
2018-01-07T07:40:29.843Z,212
2018-01-07T07:41:10.425Z,216
2018-01-07T07:41:50.991Z,220
2018-01-07T07:42:31.560Z,224
2018-01-07T07:43:12.136Z,232
2018-01-07T07:43:52.723Z,236
2018-01-07T07:44:33.312Z,232
2018-01-07T07:45:13.913Z,228
2018-01-07T07:45:54.461Z,224
2018-01-07T07:46:35.047Z,216
2018-01-07T07:47:15.634Z,212
2018-01-07T07:47:56.186Z,216
2018-01-07T07:48:36.753Z,228
2018-01-07T07:49:17.336Z,244
2018-01-07T07:49:57.910Z,256
2018-01-07T07:50:38.482Z,256
2018-01-07T07:51:19.049Z,264
2018-01-07T07:51:59.647Z,264
2018-01-07T07:52:40.403Z,276
2018-01-07T07:53:21.133Z,284
2018-01-07T07:54:01.744Z,296
2018-01-07T07:54:42.327Z,312
2018-01-07T07:55:22.957Z,324
2018-01-07T07:56:03.554Z,348
2018-01-07T07:56:44.147Z,352
2018-01-07T07:57:24.740Z,368
2018-01-07T07:58:05.493Z,368
2018-01-07T07:58:46.543Z,372
2018-01-07T07:59:27.120Z,368
2018-01-07T08:00:07.728Z,368
2018-01-07T08:00:48.318Z,372
2018-01-07T08:01:29.264Z,364
2018-01-07T08:02:09.926Z,368
2018-01-07T08:02:50.534Z,372
2018-01-07T08:03:31.171Z,376
2018-01-07T08:04:11.844Z,380
2018-01-07T08:04:52.624Z,388
2018-01-07T08:05:33.732Z,388
2018-01-07T08:06:14.303Z,384
2018-01-07T08:06:55.229Z,368
2018-01-07T08:07:36.216Z,352
2018-01-07T08:08:16.803Z,356
2018-01-07T08:08:57.373Z,356
2018-01-07T08:09:37.971Z,352
2018-01-07T08:10:18.548Z,352
2018-01-07T08:10:59.130Z,352
2018-01-07T08:11:39.741Z,356
2018-01-07T08:12:20.335Z,372
2018-01-07T08:13:00.974Z,388
2018-01-07T08:13:41.571Z,392
2018-01-07T08:14:22.180Z,416
2018-01-07T08:15:02.763Z,428
2018-01-07T08:15:43.335Z,432
2018-01-07T08:16:23.931Z,464
2018-01-07T08:17:04.510Z,484
2018-01-07T08:17:45.087Z,492
2018-01-07T08:18:25.678Z,484
2018-01-07T08:19:06.264Z,472
2018-01-07T08:19:46.836Z,500
2018-01-07T08:20:27.474Z,520
2018-01-07T08:21:08.070Z,532
2018-01-07T08:21:48.617Z,536
2018-01-07T08:22:29.180Z,536
2018-01-07T08:23:09.763Z,572
2018-01-07T08:23:50.336Z,580
2018-01-07T08:24:30.895Z,604
2018-01-07T08:25:11.476Z,628
2018-01-07T08:25:52.071Z,636
2018-01-07T08:26:32.660Z,636
2018-01-07T08:27:13.243Z,620
2018-01-07T08:27:53.860Z,604
2018-01-07T08:28:34.418Z,588
2018-01-07T08:29:14.984Z,580
2018-01-07T08:29:55.562Z,576
2018-01-07T08:30:36.150Z,580
2018-01-07T08:31:16.789Z,584
2018-01-07T08:31:57.405Z,584
2018-01-07T08:32:37.965Z,584
2018-01-07T08:33:18.561Z,584
2018-01-07T08:33:59.141Z,592
2018-01-07T08:34:39.841Z,592
2018-01-07T08:35:20.421Z,592
2018-01-07T08:36:01.148Z,592
2018-01-07T08:36:41.717Z,588
2018-01-07T08:37:22.293Z,584
2018-01-07T08:38:03.695Z,588
2018-01-07T08:38:44.310Z,596
2018-01-07T08:39:25.398Z,600
2018-01-07T08:40:06.043Z,612
2018-01-07T08:40:46.638Z,620
2018-01-07T08:41:27.268Z,632
2018-01-07T08:42:08.504Z,644
2018-01-07T08:42:49.088Z,652
2018-01-07T08:43:29.770Z,668
2018-01-07T08:44:10.393Z,676
2018-01-07T08:44:50.990Z,676
2018-01-07T08:45:31.558Z,676
2018-01-07T08:46:12.146Z,676
2018-01-07T08:46:52.743Z,676
2018-01-07T08:47:33.337Z,676
2018-01-07T08:48:13.930Z,672
2018-01-07T08:48:54.501Z,676
2018-01-07T08:49:35.066Z,668
2018-01-07T08:50:15.663Z,688
2018-01-07T08:50:56.240Z,700
2018-01-07T08:51:36.823Z,704
2018-01-07T08:52:17.402Z,708
2018-01-07T08:52:57.994Z,708
2018-01-07T08:53:38.609Z,712
2018-01-07T08:54:19.197Z,712
2018-01-07T08:54:59.746Z,716
2018-01-07T08:55:40.318Z,724
2018-01-07T08:56:20.891Z,736
2018-01-07T08:57:01.619Z,744
2018-01-07T08:57:42.179Z,760
2018-01-07T08:58:22.753Z,772
2018-01-07T08:59:03.463Z,788
2018-01-07T08:59:44.022Z,800
2018-01-07T09:00:24.645Z,816
2018-01-07T09:01:05.250Z,844
2018-01-07T09:01:45.840Z,876
2018-01-07T09:02:26.444Z,912
2018-01-07T09:03:07.008Z,952
2018-01-07T09:03:47.572Z,1004
2018-01-07T09:04:28.237Z,1072
2018-01-07T09:05:08.810Z,1136
2018-01-07T09:05:49.484Z,1188
2018-01-07T09:06:30.109Z,1212
2018-01-07T09:07:10.675Z,1240
2018-01-07T09:07:51.306Z,1284
2018-01-07T09:08:31.837Z,1312
2018-01-07T09:09:12.432Z,1312
2018-01-07T09:09:53.006Z,1308
2018-01-07T09:10:33.577Z,1296
2018-01-07T09:11:14.149Z,1284
2018-01-07T09:11:54.736Z,1264
2018-01-07T09:12:36.158Z,1252
2018-01-07T09:13:17.114Z,1264
2018-01-07T09:13:57.772Z,1288
2018-01-07T09:14:38.454Z,1292
2018-01-07T09:15:19.167Z,1296
2018-01-07T09:15:59.821Z,1320
2018-01-07T09:16:40.420Z,1360
2018-01-07T09:17:21.000Z,1400
2018-01-07T09:18:01.542Z,1456
2018-01-07T09:18:42.118Z,1496
2018-01-07T09:19:22.674Z,1540
2018-01-07T09:20:03.620Z,1608
2018-01-07T09:20:44.158Z,1660
2018-01-07T09:21:24.751Z,1712
2018-01-07T09:22:05.324Z,1760
2018-01-07T09:22:45.926Z,1804
2018-01-07T09:23:26.513Z,1848
2018-01-07T09:24:07.098Z,1884
2018-01-07T09:24:47.724Z,1916
2018-01-07T09:25:28.300Z,1924
2018-01-07T09:26:08.863Z,1940
2018-01-07T09:26:49.470Z,1956
2018-01-07T09:27:30.056Z,1956
2018-01-07T09:28:10.620Z,1924
2018-01-07T09:28:51.218Z,1888
2018-01-07T09:29:31.781Z,1864
2018-01-07T09:30:12.368Z,1832
2018-01-07T09:30:52.986Z,1828
2018-01-07T09:31:33.570Z,1800
2018-01-07T09:32:14.141Z,1708
2018-01-07T09:32:54.715Z,1616
2018-01-07T09:33:35.291Z,1568
2018-01-07T09:34:15.877Z,1536
2018-01-07T09:34:56.440Z,1488
2018-01-07T09:35:37.018Z,1452
2018-01-07T09:36:17.597Z,1428
2018-01-07T09:36:58.171Z,1420
2018-01-07T09:37:38.765Z,1420
2018-01-07T09:38:19.355Z,1384
2018-01-07T09:38:59.915Z,1344
2018-01-07T09:39:40.554Z,1292
2018-01-07T09:40:21.167Z,1244
2018-01-07T09:41:01.742Z,1212
2018-01-07T09:41:42.371Z,1200
2018-01-07T09:42:22.932Z,1220
2018-01-07T09:43:03.496Z,1244
2018-01-07T09:43:44.102Z,1272
2018-01-07T09:44:24.741Z,1296
2018-01-07T09:45:05.377Z,1336
2018-01-07T09:45:45.957Z,1364
2018-01-07T09:46:26.543Z,1392
2018-01-07T09:47:07.121Z,1444
2018-01-07T09:47:47.705Z,1472
2018-01-07T09:48:28.291Z,1520